Time;durP1;ratioP1;P1;durP2;ratioP2;P2;SDS_P1;SDS_P2;PMS_P1;PMS_P2;Temp;Humidity;BMP_temperature;BMP_pressure;BME280_temperature;BME280_humidity;BME280_pressure;Samples;Min_cycle;Max_cycle;Signal;HPM_P1;HPM_P2
2021/07/22 00:00:38;;;;;;;;;;;;;;;14.31;65.94;66875.31;5134616;27;19924;-71
2021/07/22 00:03:05;;;;;;;;;;;;;;;14.30;66.10;66874.03;5134435;27;19924;-71
2021/07/22 00:05:31;;;;;;;;;;;;;;;14.29;66.40;66873.03;5134674;27;19930;-71
2021/07/22 00:08:01;;;;;;;;;;;;;;;14.29;66.61;66871.88;5133829;27;20408;-71
2021/07/22 00:10:28;;;;;;;;;;;;;;;14.28;65.46;66871.31;5134124;27;19930;-71
2021/07/22 00:12:55;;;;;;;;;;;;;;;14.27;65.53;66870.31;5133859;27;20378;-71
2021/07/22 00:15:21;;;;;;;;;;;;;;;14.26;65.41;66869.16;5134398;27;19930;-71
2021/07/22 00:17:48;;;;;;;;;;;;;;;14.25;66.16;66867.06;5133986;27;19924;-72
2021/07/22 00:20:15;;;;;;;;;;;;;;;14.23;65.74;66864.81;5134370;27;19923;-72
2021/07/22 00:22:41;;;;;;;;;;;;;;;14.21;65.94;66863.00;5134218;27;19923;-71
2021/07/22 00:25:10;;;;;;;;;;;;;;;14.20;66.34;66861.34;5134039;27;19927;-71
2021/07/22 00:27:36;;;;;;;;;;;;;;;14.18;66.68;66859.06;5134748;27;19927;-71
2021/07/22 00:30:04;;;;;;;;;;;;;;;14.16;66.33;66857.69;5133864;27;19923;-71
2021/07/22 00:32:30;;;;;;;;;;;;;;;14.15;66.78;66855.41;5133583;27;20301;-71
2021/07/22 00:34:57;;;;;;;;;;;;;;;14.12;67.22;66853.06;5133535;27;19931;-71
2021/07/22 00:37:23;;;;;;;;;;;;;;;14.11;66.54;66851.69;5133825;27;20297;-71
2021/07/22 00:39:50;;;;;;;;;;;;;;;14.09;67.21;66849.56;5133903;27;19927;-71
2021/07/22 00:42:18;;;;;;;;;;;;;;;14.08;66.87;66848.47;5134227;27;19935;-71
2021/07/22 00:44:44;;;;;;;;;;;;;;;14.08;66.41;66847.59;5133966;27;19924;-71
2021/07/22 00:47:11;;;;;;;;;;;;;;;14.06;67.09;66846.22;5133540;27;19923;-72
2021/07/22 00:49:38;;;;;;;;;;;;;;;14.05;66.81;66844.56;5133698;27;19924;-71
2021/07/22 00:52:04;;;;;;;;;;;;;;;14.03;66.51;66843.00;5133273;27;20412;-71
2021/07/22 00:54:31;;;;;;;;;;;;;;;14.01;67.03;66840.94;5133397;27;19923;-71
2021/07/22 00:56:58;;;;;;;;;;;;;;;14.00;66.70;66839.09;5133602;27;19923;-70
2021/07/22 00:59:26;;;;;;;;;;;;;;;13.98;67.16;66837.06;5133810;27;19923;-71
2021/07/22 01:01:52;;;;;;;;;;;;;;;13.96;67.20;66834.50;5133455;28;19924;-71
2021/07/22 01:04:20;;;;;;;;;;;;;;;13.94;67.40;66832.28;5133553;28;19923;-71
2021/07/22 01:06:46;;;;;;;;;;;;;;;13.91;67.45;66829.44;5133716;28;19923;-71
2021/07/22 01:09:13;;;;;;;;;;;;;;;13.89;67.17;66827.06;5133186;28;19930;-71
2021/07/22 01:11:39;;;;;;;;;;;;;;;13.87;67.68;66824.22;5133407;28;19924;-71
2021/07/22 01:14:06;;;;;;;;;;;;;;;13.85;67.45;66821.97;5132829;28;19923;-72
2021/07/22 01:16:34;;;;;;;;;;;;;;;13.84;67.16;66820.47;5133331;28;20400;-71
2021/07/22 01:19:01;;;;;;;;;;;;;;;13.82;67.64;66818.81;5133077;28;19923;-71
2021/07/22 01:21:29;;;;;;;;;;;;;;;13.81;67.28;66817.28;5134474;27;19927;-71
2021/07/22 01:23:55;;;;;;;;;;;;;;;13.80;67.39;66816.19;5137236;27;20416;-71
2021/07/22 01:26:22;;;;;;;;;;;;;;;13.79;66.72;66815.06;5137595;27;19923;-71
2021/07/22 01:28:49;;;;;;;;;;;;;;;13.77;66.63;66814.16;5137697;27;19924;-71
2021/07/22 01:31:15;;;;;;;;;;;;;;;13.76;66.78;66813.03;5137339;27;19924;-73
2021/07/22 01:33:42;;;;;;;;;;;;;;;13.75;66.93;66811.66;5137457;27;19923;-71
2021/07/22 01:36:09;;;;;;;;;;;;;;;13.73;66.77;66810.00;5137341;27;19923;-71
2021/07/22 01:38:36;;;;;;;;;;;;;;;13.73;66.95;66809.31;5137515;27;19923;-71
2021/07/22 01:41:03;;;;;;;;;;;;;;;13.71;67.16;66807.81;5136777;27;20290;-71
2021/07/22 01:43:30;;;;;;;;;;;;;;;13.70;67.43;66806.72;5137246;27;19938;-71
2021/07/22 01:45:56;;;;;;;;;;;;;;;13.69;67.52;66804.97;5136914;27;19930;-71
2021/07/22 01:48:23;;;;;;;;;;;;;;;13.68;67.60;66803.56;5137117;27;20396;-71
2021/07/22 01:50:49;;;;;;;;;;;;;;;13.67;67.97;66802.28;5136919;27;20305;-71
2021/07/22 01:53:16;;;;;;;;;;;;;;;13.66;68.01;66801.59;5136900;27;19924;-71
2021/07/22 01:55:44;;;;;;;;;;;;;;;13.66;67.94;66800.88;5137121;27;19923;-71
2021/07/22 01:58:11;;;;;;;;;;;;;;;13.65;67.23;66800.34;5136884;27;19927;-72
2021/07/22 02:00:37;;;;;;;;;;;;;;;13.65;66.90;66800.22;5137107;27;19924;-71
2021/07/22 02:03:05;;;;;;;;;;;;;;;13.64;66.87;66799.50;5136558;27;19930;-71
2021/07/22 02:05:31;;;;;;;;;;;;;;;13.64;67.13;66798.94;5136953;27;19931;-71
2021/07/22 02:07:58;;;;;;;;;;;;;;;13.64;66.68;66799.41;5136654;27;19934;-71
2021/07/22 02:10:24;;;;;;;;;;;;;;;13.64;66.92;66799.16;5136958;27;20362;-72
2021/07/22 02:12:52;;;;;;;;;;;;;;;13.63;66.96;66798.88;5136526;27;19946;-71
2021/07/22 02:15:19;;;;;;;;;;;;;;;13.63;66.54;66798.88;5136788;27;19946;-71
2021/07/22 02:17:46;;;;;;;;;;;;;;;13.63;67.05;66798.44;5136389;27;19924;-71
2021/07/22 02:20:13;;;;;;;;;;;;;;;13.63;66.42;66798.47;5136065;27;20382;-72
2021/07/22 02:22:40;;;;;;;;;;;;;;;13.62;66.71;66798.09;5136664;27;19923;-71
2021/07/22 02:25:06;;;;;;;;;;;;;;;13.62;66.33;66797.97;5136056;27;19923;-71
2021/07/22 02:27:35;;;;;;;;;;;;;;;13.61;66.42;66797.25;5136273;27;19924;-72
2021/07/22 02:30:04;;;;;;;;;;;;;;;13.61;66.45;66797.44;5135945;27;20022;-72
2021/07/22 02:32:30;;;;;;;;;;;;;;;13.61;67.09;66796.53;5135869;27;19923;-71
2021/07/22 02:34:57;;;;;;;;;;;;;;;13.60;67.24;66796.13;5135453;27;19924;-71
2021/07/22 02:37:24;;;;;;;;;;;;;;;13.60;67.54;66795.31;5136529;27;19923;-71
2021/07/22 02:39:50;;;;;;;;;;;;;;;13.59;67.76;66794.47;5135662;27;19931;-71
2021/07/22 02:42:17;;;;;;;;;;;;;;;13.58;67.43;66793.38;5136003;27;20289;-71
2021/07/22 02:44:43;;;;;;;;;;;;;;;13.57;67.19;66792.84;5136277;27;19958;-72
2021/07/22 02:47:12;;;;;;;;;;;;;;;13.57;66.76;66792.47;5135968;27;20128;-71
2021/07/22 02:49:39;;;;;;;;;;;;;;;13.56;66.99;66791.94;5135975;27;19927;-71
2021/07/22 02:52:07;;;;;;;;;;;;;;;13.56;67.23;66791.50;5135793;27;19930;-72
2021/07/22 02:54:34;;;;;;;;;;;;;;;13.55;67.13;66790.94;5135600;27;19923;-71
2021/07/22 02:57:01;;;;;;;;;;;;;;;13.55;67.15;66790.69;5135688;27;19929;-71
2021/07/22 02:59:27;;;;;;;;;;;;;;;13.55;67.45;66790.56;5135649;27;19931;-71
2021/07/22 03:01:54;;;;;;;;;;;;;;;13.55;67.29;66790.84;5135874;27;20024;-71
2021/07/22 03:04:22;;;;;;;;;;;;;;;13.55;67.05;66790.84;5135710;27;19930;-71
2021/07/22 03:06:48;;;;;;;;;;;;;;;13.55;67.07;66791.13;5135718;27;19928;-71
2021/07/22 03:09:15;;;;;;;;;;;;;;;13.55;67.54;66790.56;5135227;27;19931;-72
2021/07/22 03:11:41;;;;;;;;;;;;;;;13.55;66.67;66790.72;5135357;27;19927;-72
2021/07/22 03:14:08;;;;;;;;;;;;;;;13.55;66.87;66791.00;5135447;27;19935;-71
2021/07/22 03:16:35;;;;;;;;;;;;;;;13.55;67.05;66790.72;5135445;27;19924;-71
2021/07/22 03:19:01;;;;;;;;;;;;;;;13.55;66.90;66791.00;5135080;27;20293;-71
2021/07/22 03:21:29;;;;;;;;;;;;;;;13.55;66.90;66791.28;5135600;27;19924;-71
2021/07/22 03:23:56;;;;;;;;;;;;;;;13.55;67.20;66791.38;5135208;27;19927;-71
2021/07/22 03:26:22;;;;;;;;;;;;;;;13.56;66.99;66791.50;5135538;27;19924;-71
2021/07/22 03:28:49;;;;;;;;;;;;;;;13.56;66.32;66791.78;5135401;27;19927;-71
2021/07/22 03:31:15;;;;;;;;;;;;;;;13.56;66.61;66791.47;5134632;27;20105;-71
2021/07/22 03:33:42;;;;;;;;;;;;;;;13.57;65.50;66792.75;5135065;27;19931;-71
2021/07/22 03:36:09;;;;;;;;;;;;;;;13.58;65.86;66793.84;5134691;27;20404;-72
2021/07/22 03:38:37;;;;;;;;;;;;;;;13.59;66.00;66795.13;5135175;27;19930;-71
2021/07/22 03:41:03;;;;;;;;;;;;;;;13.60;66.19;66796.25;5134749;27;19953;-71
2021/07/22 03:43:30;;;;;;;;;;;;;;;13.61;66.39;66797.94;5134750;27;19924;-71
2021/07/22 03:45:59;;;;;;;;;;;;;;;13.63;65.65;66799.88;5133460;27;19923;-71
2021/07/22 03:48:26;;;;;;;;;;;;;;;13.65;65.30;66801.56;5134684;27;19968;-72
2021/07/22 03:50:52;;;;;;;;;;;;;;;13.66;65.26;66802.66;5134765;27;19923;-72
2021/07/22 03:53:19;;;;;;;;;;;;;;;13.67;64.89;66804.22;5134497;27;19927;-72
2021/07/22 03:55:47;;;;;;;;;;;;;;;13.68;65.50;66805.78;5134816;27;19950;-72
2021/07/22 03:58:13;;;;;;;;;;;;;;;13.69;65.88;66806.75;5134453;27;19931;-72
2021/07/22 04:00:40;;;;;;;;;;;;;;;13.70;65.20;66808.00;5134466;27;19930;-72
2021/07/22 04:03:07;;;;;;;;;;;;;;;13.72;64.90;66810.00;5134155;27;19923;-72
2021/07/22 04:05:33;;;;;;;;;;;;;;;13.73;65.67;66811.38;5134395;27;20378;-72
2021/07/22 04:08:00;;;;;;;;;;;;;;;13.74;65.55;66812.47;5134350;27;19943;-72
2021/07/22 04:10:28;;;;;;;;;;;;;;;13.75;65.23;66814.06;5134139;27;19923;-72
2021/07/22 04:12:57;;;;;;;;;;;;;;;13.76;65.63;66815.31;5133960;27;20396;-72
2021/07/22 04:15:24;;;;;;;;;;;;;;;13.78;65.55;66817.16;5134073;27;19923;-72
2021/07/22 04:17:51;;;;;;;;;;;;;;;13.79;65.00;66818.69;5134385;27;19927;-72
2021/07/22 04:20:17;;;;;;;;;;;;;;;13.81;64.89;66821.09;5134081;27;19923;-72
2021/07/22 04:22:44;;;;;;;;;;;;;;;13.83;64.96;66823.03;5134460;27;19923;-72
2021/07/22 04:25:11;;;;;;;;;;;;;;;13.85;64.21;66825.53;5134135;27;19931;-72
2021/07/22 04:27:37;;;;;;;;;;;;;;;13.88;64.25;66828.44;5133961;27;19924;-72
2021/07/22 04:30:06;;;;;;;;;;;;;;;13.92;64.50;66832.59;5133878;27;19954;-72
2021/07/22 04:32:32;;;;;;;;;;;;;;;13.97;63.41;66837.28;5134214;27;19961;-72
2021/07/22 04:35:01;;;;;;;;;;;;;;;14.02;62.96;66843.00;5133541;27;19934;-72
2021/07/22 04:37:27;;;;;;;;;;;;;;;14.07;63.44;66848.28;5134107;27;19946;-72
2021/07/22 04:39:54;;;;;;;;;;;;;;;14.12;63.36;66854.28;5133706;27;19931;-72
2021/07/22 04:42:20;;;;;;;;;;;;;;;14.17;62.75;66860.44;5133999;27;19924;-71
2021/07/22 04:44:47;;;;;;;;;;;;;;;14.22;62.32;66866.22;5133664;27;19931;-72
2021/07/22 04:47:15;;;;;;;;;;;;;;;14.26;61.80;66870.56;5133371;27;20396;-72
2021/07/22 04:49:41;;;;;;;;;;;;;;;14.29;62.66;66873.78;5133654;27;19931;-71
2021/07/22 04:52:08;;;;;;;;;;;;;;;14.31;62.43;66876.72;5133303;27;19934;-72
2021/07/22 04:54:35;;;;;;;;;;;;;;;14.33;63.79;66878.66;5133340;27;19927;-72
2021/07/22 04:57:01;;;;;;;;;;;;;;;14.35;62.90;66881.00;5133261;27;19924;-72
2021/07/22 04:59:28;;;;;;;;;;;;;;;14.37;63.52;66882.69;5133803;27;19923;-73
2021/07/22 05:01:54;;;;;;;;;;;;;;;14.38;64.15;66883.91;5133210;28;19932;-72
2021/07/22 05:04:22;;;;;;;;;;;;;;;14.38;63.94;66884.03;5133686;28;19924;-72
2021/07/22 05:06:49;;;;;;;;;;;;;;;14.39;64.42;66884.59;5133747;28;19924;-73
2021/07/22 05:09:16;;;;;;;;;;;;;;;14.40;64.11;66886.28;5133704;28;20081;-72
2021/07/22 05:11:42;;;;;;;;;;;;;;;14.42;63.82;66888.13;5133447;28;19923;-72
2021/07/22 05:14:09;;;;;;;;;;;;;;;14.43;64.18;66889.28;5133107;28;20301;-72
2021/07/22 05:16:35;;;;;;;;;;;;;;;14.44;64.86;66890.59;5133758;28;19931;-73
2021/07/22 05:19:02;;;;;;;;;;;;;;;14.46;64.10;66892.41;5133096;28;20399;-72
2021/07/22 05:21:30;;;;;;;;;;;;;;;14.46;64.78;66892.50;5133554;28;19923;-72
2021/07/22 05:23:56;;;;;;;;;;;;;;;14.47;63.73;66894.06;5133531;28;20378;-72
2021/07/22 05:26:23;;;;;;;;;;;;;;;14.49;63.90;66895.78;5133653;28;19929;-72
2021/07/22 05:28:49;;;;;;;;;;;;;;;14.50;64.08;66896.59;5133276;28;19923;-72
2021/07/22 05:31:16;;;;;;;;;;;;;;;14.51;64.29;66897.56;5132961;28;20386;-72
2021/07/22 05:33:43;;;;;;;;;;;;;;;14.51;64.14;66898.00;5133609;28;19930;-72
2021/07/22 05:36:09;;;;;;;;;;;;;;;14.51;64.64;66898.00;5133031;28;19976;-73
2021/07/22 05:38:38;;;;;;;;;;;;;;;14.51;64.29;66898.00;5133271;28;20390;-72
2021/07/22 05:41:05;;;;;;;;;;;;;;;14.50;64.82;66897.47;5133167;28;19923;-72
2021/07/22 05:43:32;;;;;;;;;;;;;;;14.51;64.19;66898.19;5132993;28;20377;-72
2021/07/22 05:45:59;;;;;;;;;;;;;;;14.51;64.89;66898.72;5133156;28;19945;-72
2021/07/22 05:48:26;;;;;;;;;;;;;;;14.52;65.11;66899.69;5132946;28;19924;-72
2021/07/22 05:50:52;;;;;;;;;;;;;;;14.54;63.40;66902.25;5132892;28;19924;-72
2021/07/22 05:53:20;;;;;;;;;;;;;;;14.56;64.16;66903.91;5132785;28;20377;-73
2021/07/22 05:55:48;;;;;;;;;;;;;;;14.57;63.85;66905.66;5133148;28;19976;-72
2021/07/22 05:58:14;;;;;;;;;;;;;;;14.58;63.11;66906.19;5132722;28;20021;-72
2021/07/22 06:00:41;;;;;;;;;;;;;;;14.58;62.36;66906.91;5132861;28;19934;-72
2021/07/22 06:03:08;;;;;;;;;;;;;;;14.59;62.57;66908.06;5132669;28;20289;-72
2021/07/22 06:05:35;;;;;;;;;;;;;;;14.60;62.73;66908.59;5133062;28;19924;-72
2021/07/22 06:08:01;;;;;;;;;;;;;;;14.61;62.62;66909.81;5132995;27;19924;-72
2021/07/22 06:10:28;;;;;;;;;;;;;;;14.62;62.75;66911.53;5136610;27;19923;-72
2021/07/22 06:12:56;;;;;;;;;;;;;;;14.65;62.42;66914.53;5136331;27;19923;-72
2021/07/22 06:15:23;;;;;;;;;;;;;;;14.66;62.89;66915.63;5136272;27;20385;-72
2021/07/22 06:17:50;;;;;;;;;;;;;;;14.66;62.13;66916.47;5136512;27;19924;-72
2021/07/22 06:20:16;;;;;;;;;;;;;;;14.67;63.12;66917.19;5136484;27;19930;-72
2021/07/22 06:22:45;;;;;;;;;;;;;;;14.68;62.03;66918.25;5136267;27;19924;-72
2021/07/22 06:25:12;;;;;;;;;;;;;;;14.69;62.06;66919.53;5136055;27;19930;-72
2021/07/22 06:27:39;;;;;;;;;;;;;;;14.68;62.68;66918.69;5136330;27;19930;-72
2021/07/22 06:30:08;;;;;;;;;;;;;;;14.69;61.92;66919.41;5135987;27;19924;-72
2021/07/22 06:32:35;;;;;;;;;;;;;;;14.70;61.35;66921.03;5136450;27;19937;-72
2021/07/22 06:35:01;;;;;;;;;;;;;;;14.71;62.51;66922.16;5136013;27;19927;-72
2021/07/22 06:37:28;;;;;;;;;;;;;;;14.72;62.20;66923.72;5136173;27;19923;-72
2021/07/22 06:39:55;;;;;;;;;;;;;;;14.73;62.56;66924.84;5135773;27;19924;-72
2021/07/22 06:42:21;;;;;;;;;;;;;;;14.74;62.75;66925.66;5136278;27;19923;-72
2021/07/22 06:44:48;;;;;;;;;;;;;;;14.75;61.86;66926.94;5135807;27;19930;-72
2021/07/22 06:47:16;;;;;;;;;;;;;;;14.75;62.83;66927.03;5135599;27;19923;-72
2021/07/22 06:49:43;;;;;;;;;;;;;;;14.76;62.04;66927.41;5135824;27;19935;-72
2021/07/22 06:52:09;;;;;;;;;;;;;;;14.76;62.64;66928.28;5135466;27;20385;-72
2021/07/22 06:54:37;;;;;;;;;;;;;;;14.76;63.11;66928.00;5135596;27;19923;-72
2021/07/22 06:57:04;;;;;;;;;;;;;;;14.76;62.57;66927.84;5135701;27;20301;-72
2021/07/22 06:59:30;;;;;;;;;;;;;;;14.77;62.95;66928.50;5135643;27;20303;-72
2021/07/22 07:01:57;;;;;;;;;;;;;;;14.77;62.81;66928.97;5135675;27;19923;-72
2021/07/22 07:04:25;;;;;;;;;;;;;;;14.77;61.95;66929.25;5135849;27;19938;-72
2021/07/22 07:06:51;;;;;;;;;;;;;;;14.78;62.28;66929.63;5135582;27;19934;-72
2021/07/22 07:09:18;;;;;;;;;;;;;;;14.78;62.63;66930.25;5135940;27;20357;-72
2021/07/22 07:11:44;;;;;;;;;;;;;;;14.78;62.43;66929.81;5135777;27;19930;-72
2021/07/22 07:14:11;;;;;;;;;;;;;;;14.78;63.06;66929.81;5135364;27;19934;-72
2021/07/22 07:16:39;;;;;;;;;;;;;;;14.78;63.31;66929.91;5135335;27;19930;-73
2021/07/22 07:19:07;;;;;;;;;;;;;;;14.79;62.44;66930.97;5134656;27;20374;-72
2021/07/22 07:21:36;;;;;;;;;;;;;;;14.79;62.65;66931.34;5135563;27;19957;-71
2021/07/22 07:24:03;;;;;;;;;;;;;;;14.80;61.83;66932.75;5135169;27;19931;-71
2021/07/22 07:26:29;;;;;;;;;;;;;;;14.81;62.40;66934.00;5134971;27;19924;-71
2021/07/22 07:28:56;;;;;;;;;;;;;;;14.82;61.86;66934.69;5134754;27;20392;-71
2021/07/22 07:31:23;;;;;;;;;;;;;;;14.82;62.67;66934.56;5135238;27;20285;-72
2021/07/22 07:33:49;;;;;;;;;;;;;;;14.83;62.28;66935.31;5135124;27;19923;-71
2021/07/22 07:36:16;;;;;;;;;;;;;;;14.83;62.07;66935.56;5134839;27;19927;-71
2021/07/22 07:38:44;;;;;;;;;;;;;;;14.83;62.03;66936.13;5134734;27;19923;-71
2021/07/22 07:41:11;;;;;;;;;;;;;;;14.83;62.73;66935.69;5134527;27;19923;-72
2021/07/22 07:43:37;;;;;;;;;;;;;;;14.84;61.93;66937.72;5135096;27;19924;-72
2021/07/22 07:46:04;;;;;;;;;;;;;;;14.87;61.35;66940.66;5134825;27;20187;-72
2021/07/22 07:48:30;;;;;;;;;;;;;;;14.89;61.46;66943.59;5134599;27;19924;-71
2021/07/22 07:50:57;;;;;;;;;;;;;;;14.91;61.23;66946.00;5134593;27;19945;-71
2021/07/22 07:53:24;;;;;;;;;;;;;;;14.94;62.06;66948.94;5134383;27;20120;-72
2021/07/22 07:55:52;;;;;;;;;;;;;;;14.96;61.00;66951.19;5134450;27;19934;-71
2021/07/22 07:58:19;;;;;;;;;;;;;;;14.99;61.26;66954.13;5134465;27;19931;-72
2021/07/22 08:00:47;;;;;;;;;;;;;;;15.02;60.27;66958.13;5134374;27;20395;-72
2021/07/22 08:03:18;;;;;;;;;;;;;;;15.05;61.46;66961.19;5134418;27;19923;-72
2021/07/22 08:05:44;;;;;;;;;;;;;;;15.08;60.91;66964.25;5134674;27;19931;-72
2021/07/22 08:08:11;;;;;;;;;;;;;;;15.10;61.62;66966.75;5134149;27;20019;-71
2021/07/22 08:10:40;;;;;;;;;;;;;;;15.14;60.35;66971.31;5134102;27;19923;-71
2021/07/22 08:13:09;;;;;;;;;;;;;;;15.16;60.91;66973.97;5134028;27;19923;-72
2021/07/22 08:15:35;;;;;;;;;;;;;;;15.20;60.28;66977.75;5134056;27;20369;-72
2021/07/22 08:18:02;;;;;;;;;;;;;;;15.24;59.78;66982.94;5134209;27;19938;-73
2021/07/22 08:20:28;;;;;;;;;;;;;;;15.30;59.47;66989.59;5134485;27;19930;-72
2021/07/22 08:22:55;;;;;;;;;;;;;;;15.35;58.74;66994.72;5133732;27;20289;-71
2021/07/22 08:25:23;;;;;;;;;;;;;;;15.40;59.00;66999.47;5134324;27;19927;-72
2021/07/22 08:27:49;;;;;;;;;;;;;;;15.46;58.17;67006.56;5134358;27;19924;-71
2021/07/22 08:30:18;;;;;;;;;;;;;;;15.54;56.74;67016.09;5133588;27;19923;-72
2021/07/22 08:32:44;;;;;;;;;;;;;;;15.64;56.46;67026.97;5133686;27;19924;-72
2021/07/22 08:35:11;;;;;;;;;;;;;;;15.75;55.10;67039.75;5133703;27;19924;-72
2021/07/22 08:37:38;;;;;;;;;;;;;;;15.87;54.68;67052.16;5133752;27;20369;-72
2021/07/22 08:40:05;;;;;;;;;;;;;;;15.98;55.46;67064.94;5133808;27;20297;-72
2021/07/22 08:42:35;;;;;;;;;;;;;;;16.07;54.21;67075.22;5134062;27;19931;-72
2021/07/22 08:45:02;;;;;;;;;;;;;;;16.16;54.41;67084.75;5134064;27;20196;-72
2021/07/22 08:47:30;;;;;;;;;;;;;;;16.22;54.93;67091.63;5133879;27;19945;-71
2021/07/22 08:49:57;;;;;;;;;;;;;;;16.27;55.61;67097.09;5133575;27;19923;-73
2021/07/22 08:52:24;;;;;;;;;;;;;;;16.32;55.94;67103.00;5133708;27;20291;-71
2021/07/22 08:54:50;;;;;;;;;;;;;;;16.37;56.06;67109.13;5133868;27;19923;-71
2021/07/22 08:57:19;;;;;;;;;;;;;;;16.42;56.14;67114.69;5133154;27;19924;-72
2021/07/22 08:59:47;;;;;;;;;;;;;;;16.44;57.26;67116.06;5133745;27;20019;-72
2021/07/22 09:02:19;;;;;;;;;;;;;;;16.47;56.01;67119.72;5133423;28;19928;-71
2021/07/22 09:04:51;;;;;;;;;;;;;;;16.49;57.39;67122.22;5133885;28;19923;-71
2021/07/22 09:07:18;;;;;;;;;;;;;;;16.50;57.18;67123.31;5133565;28;19927;-73
2021/07/22 09:09:45;;;;;;;;;;;;;;;16.51;56.17;67124.00;5133620;28;19966;-72
2021/07/22 09:12:11;;;;;;;;;;;;;;;16.51;57.48;67124.59;5133313;28;19931;-72
2021/07/22 09:14:38;;;;;;;;;;;;;;;16.51;57.78;67123.91;5133365;28;19924;-72
2021/07/22 09:17:04;;;;;;;;;;;;;;;16.49;58.17;67122.13;5132997;28;20366;-72
2021/07/22 09:19:32;;;;;;;;;;;;;;;16.46;57.87;67119.34;5133592;28;19923;-71
2021/07/22 09:22:00;;;;;;;;;;;;;;;16.44;58.65;67116.84;5132858;28;19931;-70
2021/07/22 09:24:27;;;;;;;;;;;;;;;16.41;59.93;67113.88;5133538;28;19923;-70
2021/07/22 09:26:54;;;;;;;;;;;;;;;16.39;58.47;67111.72;5133317;28;19935;-71
2021/07/22 09:29:21;;;;;;;;;;;;;;;16.36;59.21;67108.34;5133540;28;19923;-70
2021/07/22 09:31:47;;;;;;;;;;;;;;;16.33;60.67;67104.41;5133103;28;19923;-70
2021/07/22 09:34:18;;;;;;;;;;;;;;;16.30;59.96;67101.09;5132800;28;19939;-70
2021/07/22 09:36:45;;;;;;;;;;;;;;;16.27;59.00;67098.56;5133376;28;20026;-70
2021/07/22 09:39:23;;;;;;;;;;;;;;;16.25;58.69;67095.78;5133230;28;20300;-70
2021/07/22 09:41:59;;;;;;;;;;;;;;;16.23;59.47;67093.50;5133186;27;19923;-70
2021/07/22 09:44:30;;;;;;;;;;;;;;;16.22;58.92;67091.97;5136098;27;20321;-72
2021/07/22 09:46:56;;;;;;;;;;;;;;;16.20;58.82;67090.59;5136737;27;19923;-71
2021/07/22 09:49:30;;;;;;;;;;;;;;;16.17;59.73;67087.28;5137403;27;19927;-71
2021/07/22 09:52:01;;;;;;;;;;;;;;;16.16;59.09;67085.88;5136968;27;19924;-71
2021/07/22 09:54:32;;;;;;;;;;;;;;;16.15;59.67;67084.47;5136760;27;20345;-71
2021/07/22 09:57:01;;;;;;;;;;;;;;;16.14;58.98;67084.09;5136633;27;20346;-71
2021/07/22 09:59:28;;;;;;;;;;;;;;;16.16;56.70;67085.91;5137118;27;19946;-71
2021/07/22 10:01:57;;;;;;;;;;;;;;;16.17;58.21;67088.03;5136463;27;19923;-71
2021/07/22 10:04:24;;;;;;;;;;;;;;;16.20;57.12;67091.09;5136997;27;19934;-72
2021/07/22 10:06:50;;;;;;;;;;;;;;;16.26;55.92;67097.34;5137008;27;19923;-70
2021/07/22 10:09:18;;;;;;;;;;;;;;;16.38;52.55;67110.66;5136730;27;19930;-70
2021/07/22 10:11:47;;;;;;;;;;;;;;;16.57;49.21;67132.03;5136585;27;19988;-70
2021/07/22 10:14:15;;;;;;;;;;;;;;;16.72;49.41;67148.84;5136241;27;19928;-71
2021/07/22 10:16:42;;;;;;;;;;;;;;;16.86;49.05;67165.22;5136593;27;19930;-70
2021/07/22 10:19:08;;;;;;;;;;;;;;;17.01;49.26;67181.44;5136227;27;19941;-70
2021/07/22 10:21:36;;;;;;;;;;;;;;;17.17;48.45;67199.50;5136434;27;19929;-70
2021/07/22 10:24:04;;;;;;;;;;;;;;;17.30;48.58;67213.88;5136347;27;20377;-70
2021/07/22 10:26:31;;;;;;;;;;;;;;;17.56;45.14;67243.06;5136207;27;20321;-70
2021/07/22 10:29:00;;;;;;;;;;;;;;;17.84;43.50;67274.09;5136273;27;19924;-70
2021/07/22 10:31:26;;;;;;;;;;;;;;;18.26;37.74;67321.53;5136217;27;20324;-70
2021/07/22 10:33:53;;;;;;;;;;;;;;;18.75;35.97;67376.41;5136447;27;19927;-71
2021/07/22 10:36:21;;;;;;;;;;;;;;;19.05;38.44;67410.22;5136459;27;19924;-71
2021/07/22 10:38:48;;;;;;;;;;;;;;;19.39;38.24;67448.50;5136337;27;19923;-70
2021/07/22 10:41:33;;;;;;;;;;;;;;;19.82;36.08;67497.41;5136269;27;19928;-70
2021/07/22 10:44:01;;;;;;;;;;;;;;;20.06;38.89;67524.75;5136200;27;19923;-70
2021/07/22 10:46:51;;;;;;;;;;;;;;;20.21;40.84;67541.13;5135959;27;20177;-70
2021/07/22 10:49:18;;;;;;;;;;;;;;;20.31;41.12;67553.25;5135557;27;20369;-71
2021/07/22 10:51:45;;;;;;;;;;;;;;;20.48;40.33;67572.19;5135947;27;19923;-70
2021/07/22 10:54:35;;;;;;;;;;;;;;;20.66;39.79;67592.16;5134809;27;19954;-70
2021/07/22 10:57:02;;;;;;;;;;;;;;;20.83;40.18;67611.38;5135316;27;19930;-70
2021/07/22 10:59:47;;;;;;;;;;;;;;;21.00;40.45;67630.66;5135933;27;19924;-70
2021/07/22 11:02:38;;;;;;;;;;;;;;;21.18;39.44;67650.44;5135695;27;19932;-71
2021/07/22 11:05:05;;;;;;;;;;;;;;;21.23;42.65;67656.75;5135347;27;20378;-70
2021/07/22 11:07:32;;;;;;;;;;;;;;;21.23;44.50;67656.19;5135740;27;19923;-70
2021/07/22 11:09:59;;;;;;;;;;;;;;;21.22;44.72;67655.19;5135213;27;19931;-72
2021/07/22 11:12:45;;;;;;;;;;;;;;;21.23;43.75;67656.47;5135757;27;20169;-72
2021/07/22 11:15:15;;;;;;;;;;;;;;;21.29;42.37;67663.06;5135335;27;19924;-70
2021/07/22 11:17:45;;;;;;;;;;;;;;;21.46;39.87;67682.16;5135575;27;19931;-72
2021/07/22 11:20:29;;;;;;;;;;;;;;;21.61;39.82;67698.59;5134944;27;19930;-71
2021/07/22 11:22:55;;;;;;;;;;;;;;;21.86;35.62;67727.25;5124500;27;19930;-70
2021/07/22 11:25:22;;;;;;;;;;;;;;;22.07;35.76;67751.50;5135171;27;20389;-70
2021/07/22 11:27:49;;;;;;;;;;;;;;;22.33;33.73;67781.53;5135086;27;19930;-70
2021/07/22 11:30:17;;;;;;;;;;;;;;;22.56;34.37;67807.44;5135048;27;20177;-71
2021/07/22 11:32:45;;;;;;;;;;;;;;;22.78;33.36;67831.94;5135169;27;19942;-71
2021/07/22 11:35:12;;;;;;;;;;;;;;;23.03;32.44;67861.38;5134707;27;19923;-71
2021/07/22 11:37:39;;;;;;;;;;;;;;;23.33;30.91;67894.75;5134858;27;20373;-71
2021/07/22 11:40:07;;;;;;;;;;;;;;;23.58;31.80;67922.91;5135043;27;19924;-71
2021/07/22 11:42:34;;;;;;;;;;;;;;;23.79;31.91;67946.88;5135185;27;20354;-71
2021/07/22 11:45:02;;;;;;;;;;;;;;;24.00;31.89;67971.09;5134364;27;19931;-71
2021/07/22 11:47:31;;;;;;;;;;;;;;;24.16;32.45;67989.13;5134765;27;19931;-71
2021/07/22 11:49:59;;;;;;;;;;;;;;;24.37;32.03;68012.81;5134793;27;19923;-71
2021/07/22 11:52:26;;;;;;;;;;;;;;;24.53;31.39;68031.88;5134443;27;20288;-71
2021/07/22 11:55:03;;;;;;;;;;;;;;;24.77;29.87;68058.63;5134763;27;19930;-71
2021/07/22 11:57:34;;;;;;;;;;;;;;;25.04;29.58;68088.81;5134565;27;19931;-71
2021/07/22 12:00:11;;;;;;;;;;;;;;;25.27;28.40;68115.75;5134941;27;19924;-71
2021/07/22 12:02:43;;;;;;;;;;;;;;;25.51;28.62;68143.06;5134116;27;20208;-71
2021/07/22 12:05:12;;;;;;;;;;;;;;;25.63;29.33;68157.44;5133864;27;20298;-71
2021/07/22 12:07:38;;;;;;;;;;;;;;;25.77;30.22;68172.59;5133955;27;19935;-71
2021/07/22 12:10:05;;;;;;;;;;;;;;;25.94;29.18;68192.56;5133943;27;19923;-71
2021/07/22 12:12:32;;;;;;;;;;;;;;;26.16;28.35;68218.09;5134485;27;19923;-71
2021/07/22 12:15:06;;;;;;;;;;;;;;;26.32;30.22;68236.59;5133934;27;19924;-71
2021/07/22 12:17:33;;;;;;;;;;;;;;;26.47;28.36;68254.06;5134292;27;19930;-71
2021/07/22 12:19:59;;;;;;;;;;;;;;;26.66;26.84;68275.63;5134110;27;19923;-72
2021/07/22 12:22:28;;;;;;;;;;;;;;;26.83;27.70;68294.09;5133954;27;19923;-71
2021/07/22 12:24:55;;;;;;;;;;;;;;;26.91;28.66;68303.25;5134048;27;19927;-71
2021/07/22 12:27:25;;;;;;;;;;;;;;;26.95;30.33;68307.59;5134336;27;19958;-71
2021/07/22 12:29:52;;;;;;;;;;;;;;;27.08;28.38;68321.81;5134009;27;19923;-71
2021/07/22 12:32:19;;;;;;;;;;;;;;;27.13;29.29;68328.06;5134173;27;19924;-71
2021/07/22 12:34:45;;;;;;;;;;;;;;;27.16;30.89;68331.88;5133791;27;19930;-71
2021/07/22 12:37:12;;;;;;;;;;;;;;;27.27;29.11;68343.66;5133539;27;20388;-71
2021/07/22 12:39:40;;;;;;;;;;;;;;;27.35;29.44;68353.78;5134274;27;19924;-71
2021/07/22 12:42:10;;;;;;;;;;;;;;;27.42;29.29;68361.56;5133598;27;20373;-71
2021/07/22 12:44:51;;;;;;;;;;;;;;;27.59;27.99;68380.47;5134280;27;20342;-71
2021/07/22 12:47:28;;;;;;;;;;;;;;;27.71;27.94;68393.13;5133342;27;19924;-71
2021/07/22 12:49:55;;;;;;;;;;;;;;;27.78;27.56;68401.31;5133761;27;19935;-71